Time;durP1;ratioP1;P1;durP2;ratioP2;P2;SDS_P1;SDS_P2;PMS_P1;PMS_P2;Temp;Humidity;BMP_temperature;BMP_pressure;BME280_temperature;BME280_humidity;BME280_pressure;Samples;Min_cycle;Max_cycle;Signal;HPM_P1;HPM_P2
2022/12/05 00:01:30;;;;;;;56.28;26.55;;;;;;;3.44;100.00;101942.63;5009982;28;20392;-62
2022/12/05 00:03:58;;;;;;;57.88;25.75;;;;;;;3.44;100.00;101948.72;5010029;28;20030;-65
2022/12/05 00:06:25;;;;;;;60.85;28.33;;;;;;;3.51;100.00;101947.94;5010233;28;20026;-63
2022/12/05 00:08:51;;;;;;;56.38;26.90;;;;;;;3.48;100.00;101947.91;5008668;28;20457;-62
2022/12/05 00:11:19;;;;;;;56.53;26.10;;;;;;;3.65;100.00;101936.81;5008864;28;20100;-63
2022/12/05 00:13:45;;;;;;;55.20;25.85;;;;;;;3.66;100.00;101944.66;5009200;28;20029;-62
2022/12/05 00:16:13;;;;;;;53.78;25.95;;;;;;;3.62;100.00;101942.88;5009613;28;20464;-63
2022/12/05 00:18:39;;;;;;;51.22;25.23;;;;;;;3.81;100.00;101947.41;5009851;28;20022;-63
2022/12/05 00:21:06;;;;;;;53.63;26.23;;;;;;;3.67;100.00;101940.31;5009428;28;20448;-64
2022/12/05 00:23:31;;;;;;;55.70;25.95;;;;;;;3.76;100.00;101935.22;5009320;28;20034;-63
2022/12/05 00:25:56;;;;;;;50.65;25.17;;;;;;;3.76;100.00;101939.53;5008079;28;20068;-63
2022/12/05 00:28:22;;;;;;;57.50;26.52;;;;;;;3.66;100.00;101943.78;5009605;28;20026;-62
2022/12/05 00:30:47;;;;;;;50.85;25.27;;;;;;;3.72;100.00;101941.25;4991604;28;20061;-66
2022/12/05 00:33:12;;;;;;;46.92;23.80;;;;;;;3.69;100.00;101942.94;5009355;28;20025;-62
2022/12/05 00:35:38;;;;;;;51.70;24.90;;;;;;;3.60;100.00;101939.38;5009471;28;20029;-62
2022/12/05 00:38:03;;;;;;;43.05;23.30;;;;;;;3.63;100.00;101935.91;5006845;28;20084;-61
2022/12/05 00:40:28;;;;;;;53.80;25.75;;;;;;;3.61;100.00;101945.47;5008079;28;20084;-63
2022/12/05 00:42:53;;;;;;;48.35;24.90;;;;;;;3.83;100.00;101946.63;5008787;28;20112;-64
2022/12/05 00:45:19;;;;;;;44.83;22.95;;;;;;;3.79;100.00;101948.28;5009304;28;20026;-63
2022/12/05 00:47:44;;;;;;;47.80;23.35;;;;;;;3.85;100.00;101944.03;5008930;28;20041;-64
2022/12/05 00:50:10;;;;;;;44.45;22.90;;;;;;;3.87;100.00;101944.91;5008800;28;20120;-62
2022/12/05 00:52:35;;;;;;;47.05;23.33;;;;;;;3.89;100.00;101949.25;5008840;28;20542;-61
2022/12/05 00:55:00;;;;;;;47.92;22.90;;;;;;;3.89;100.00;101945.81;5008008;28;20022;-63
2022/12/05 00:57:26;;;;;;;44.35;22.08;;;;;;;3.89;100.00;101946.66;4991399;28;20022;-63
2022/12/05 00:59:51;;;;;;;47.55;23.80;;;;;;;3.98;100.00;101947.63;4991314;28;20038;-63
2022/12/05 01:02:16;;;;;;;44.90;21.70;;;;;;;4.01;100.00;101953.75;5009019;28;20049;-62
2022/12/05 01:04:42;;;;;;;45.08;21.92;;;;;;;4.03;100.00;101959.88;5008966;28;20080;-63
2022/12/05 01:07:07;;;;;;;46.17;22.60;;;;;;;3.90;100.00;101947.53;5006409;28;20055;-62
2022/12/05 01:09:32;;;;;;;42.40;22.50;;;;;;;3.84;100.00;101950.06;4990615;28;20030;-61
2022/12/05 01:11:57;;;;;;;46.30;21.73;;;;;;;3.77;100.00;101946.53;5007464;28;20049;-63
2022/12/05 01:14:24;;;;;;;45.67;22.05;;;;;;;3.97;100.00;101951.97;5008824;28;20046;-62
2022/12/05 01:16:51;;;;;;;46.33;21.92;;;;;;;3.95;100.00;101951.09;5008913;28;20029;-62
2022/12/05 01:19:25;;;;;;;39.45;20.80;;;;;;;4.01;100.00;101945.91;5008937;28;20028;-63
2022/12/05 01:21:50;;;;;;;47.22;22.75;;;;;;;3.98;100.00;101951.13;5008926;28;20033;-64
2022/12/05 01:24:16;;;;;;;43.40;21.65;;;;;;;3.84;100.00;101937.03;5009240;28;20072;-64
2022/12/05 01:26:42;;;;;;;44.42;22.38;;;;;;;3.94;100.00;101940.66;5008335;28;20030;-63
2022/12/05 01:29:09;;;;;;;55.88;24.20;;;;;;;3.87;100.00;101942.28;5009157;28;20026;-62
2022/12/05 01:31:35;;;;;;;48.42;23.08;;;;;;;3.82;100.00;101941.38;5009252;28;20040;-62
2022/12/05 01:34:03;;;;;;;44.65;21.52;;;;;;;3.89;100.00;101940.59;5007171;28;20340;-62
2022/12/05 01:36:29;;;;;;;46.80;23.23;;;;;;;3.88;100.00;101949.25;5010407;28;20038;-64
2022/12/05 01:38:55;;;;;;;44.17;22.30;;;;;;;3.87;100.00;101944.91;5011911;28;20357;-62
2022/12/05 01:41:24;;;;;;;48.72;23.25;;;;;;;3.95;100.00;101955.44;5012373;28;20029;-63
2022/12/05 01:44:01;;;;;;;46.55;23.13;;;;;;;4.00;100.00;101956.38;5012400;28;20026;-63
2022/12/05 01:46:34;;;;;;;47.92;22.00;;;;;;;3.82;100.00;101950.06;5012488;28;20368;-62
2022/12/05 01:49:02;;;;;;;41.63;22.83;;;;;;;3.90;100.00;101953.66;5012225;28;20061;-62
2022/12/05 01:51:29;;;;;;;46.47;23.65;;;;;;;4.00;100.00;101954.63;5012182;28;20439;-62
2022/12/05 01:53:54;;;;;;;44.70;22.85;;;;;;;4.12;100.00;101960.84;5012301;28;20021;-64
2022/12/05 01:56:19;;;;;;;45.58;22.95;;;;;;;4.11;100.00;101951.25;5011608;28;20064;-62
2022/12/05 01:58:45;;;;;;;44.47;22.05;;;;;;;4.01;100.00;101956.34;5011953;28;20380;-63
2022/12/05 02:03:40;;;;;;;50.17;22.20;;;;;;;4.11;100.00;101957.34;5027762;28;20400;-62
2022/12/05 02:06:06;;;;;;;45.92;23.05;;;;;;;4.04;100.00;101950.31;5032015;28;20036;-62
2022/12/05 02:08:31;;;;;;;54.25;24.38;;;;;;;3.89;100.00;101957.09;5012009;28;20030;-62
2022/12/05 02:10:57;;;;;;;49.25;23.52;;;;;;;4.08;100.00;101956.44;5030473;28;20029;-62
2022/12/05 02:13:57;;;;;;;49.17;24.25;;;;;;;4.13;100.00;101960.84;5012919;28;20029;-63
2022/12/05 02:16:25;;;;;;;47.92;23.27;;;;;;;4.06;100.00;101966.84;5014066;28;20526;-63
2022/12/05 02:18:55;;;;;;;49.88;22.88;;;;;;;4.07;100.00;101960.78;5031307;28;20026;-62
2022/12/05 02:21:51;;;;;;;52.30;24.55;;;;;;;3.82;100.00;101955.25;5013705;28;20451;-62
2022/12/05 02:24:32;;;;;;;51.50;24.10;;;;;;;3.97;100.00;101954.56;5031462;28;20026;-62
2022/12/05 02:27:17;;;;;;;52.42;23.88;;;;;;;4.00;100.00;101951.16;5030170;28;20448;-63
2022/12/05 02:29:56;;;;;;;48.15;23.92;;;;;;;3.95;100.00;101948.50;5013231;28;20033;-63
2022/12/05 02:32:31;;;;;;;;;;;;;;;3.91;100.00;101951.91;5030010;28;20463;-60
2022/12/05 02:35:04;;;;;;;52.13;23.65;;;;;;;3.96;100.00;101947.63;5012881;28;19944;-62
2022/12/05 02:37:42;;;;;;;47.88;23.25;;;;;;;3.96;100.00;101950.22;5021616;28;20041;-61
2022/12/05 02:40:25;;;;;;;44.90;22.73;;;;;;;3.82;100.00;101951.81;5010771;28;20030;-64
2022/12/05 02:42:59;;;;;;;46.90;23.60;;;;;;;4.19;100.00;101944.41;5010593;28;20044;-62
2022/12/05 02:45:25;;;;;;;54.80;23.90;;;;;;;4.12;100.00;101950.41;5012804;28;20053;-62
2022/12/05 02:47:52;;;;;;;49.67;23.77;;;;;;;4.08;100.00;101954.72;5027604;28;20052;-62
2022/12/05 02:50:32;;;;;;;49.10;24.50;;;;;;;4.15;100.00;101958.25;5030921;28;20017;-63
2022/12/05 02:53:06;;;;;;;47.65;24.02;;;;;;;4.08;100.00;101954.72;5012168;28;20056;-63
2022/12/05 02:55:32;;;;;;;48.03;23.60;;;;;;;4.11;100.00;101959.06;5012247;28;20045;-63
2022/12/05 02:57:59;;;;;;;46.60;24.17;;;;;;;4.20;100.00;101963.53;5028796;28;20029;-64
2022/12/05 03:00:25;;;;;;;49.92;22.98;;;;;;;4.11;100.00;101965.19;5012809;28;20029;-63
2022/12/05 03:02:53;;;;;;;51.97;25.70;;;;;;;3.86;100.00;101961.41;5030146;28;20056;-63
2022/12/05 03:05:24;;;;;;;53.35;24.95;;;;;;;3.96;100.00;101959.78;5027538;28;20033;-63
2022/12/05 03:07:52;;;;;;;43.53;22.77;;;;;;;4.01;100.00;101961.56;5012131;28;20034;-63
2022/12/05 03:10:21;;;;;;;50.47;24.03;;;;;;;4.16;100.00;101970.44;5010957;28;20111;-64
2022/12/05 03:12:55;;;;;;;53.25;23.10;;;;;;;4.19;100.00;101962.66;5011719;28;20387;-63
2022/12/05 03:15:31;;;;;;;47.05;24.67;;;;;;;4.20;100.00;101967.00;5029371;28;20101;-63
2022/12/05 03:18:06;;;;;;;49.28;23.73;;;;;;;4.22;100.00;101960.09;5012134;28;20029;-63
2022/12/05 03:20:34;;;;;;;54.05;24.58;;;;;;;4.23;100.00;101967.06;5030768;28;20040;-62
2022/12/05 03:23:07;;;;;;;49.85;23.27;;;;;;;4.18;100.00;101960.88;5029323;28;20060;-64
2022/12/05 03:25:51;;;;;;;49.10;22.50;;;;;;;4.24;100.00;101962.72;5030787;28;20044;-64
2022/12/05 03:28:39;;;;;;;53.55;23.58;;;;;;;4.27;100.00;101971.44;5031311;28;20029;-62
2022/12/05 03:31:09;;;;;;;45.92;23.08;;;;;;;4.23;100.00;101967.06;5031377;28;20025;-57
2022/12/05 03:33:40;;;;;;;48.78;24.08;;;;;;;4.07;100.00;101958.19;5029911;28;20029;-62
2022/12/05 03:36:14;;;;;;;52.35;24.15;;;;;;;4.22;100.00;101965.31;5011070;28;20140;-63
2022/12/05 03:38:52;;;;;;;54.55;23.85;;;;;;;4.10;100.00;101973.00;5029728;28;20036;-63
2022/12/05 03:41:40;;;;;;;49.33;23.27;;;;;;;4.23;100.00;101974.00;5028070;28;20112;-63
2022/12/05 03:44:17;;;;;;;45.60;23.30;;;;;;;4.30;100.00;101974.09;5019424;28;20111;-63
2022/12/05 03:46:52;;;;;;;48.55;23.23;;;;;;;4.29;100.00;101972.34;5030215;28;20025;-62
2022/12/05 03:49:42;;;;;;;47.00;22.30;;;;;;;4.31;100.00;101974.97;5012648;28;20029;-62
2022/12/05 03:52:16;;;;;;;52.70;22.92;;;;;;;4.35;100.00;101981.97;5031180;28;20060;-61
2022/12/05 03:54:55;;;;;;;51.58;22.70;;;;;;;4.40;100.00;101982.88;5029577;28;20021;-63
2022/12/05 03:57:24;;;;;;;50.72;22.35;;;;;;;4.37;100.00;101979.38;4996167;28;20474;-62
2022/12/05 04:00:06;;;;;;;44.70;22.60;;;;;;;4.17;100.00;101980.03;5029502;28;20036;-63
2022/12/05 04:02:44;;;;;;;43.88;21.55;;;;;;;4.34;100.00;101987.16;5030884;28;20128;-62
2022/12/05 04:05:16;;;;;;;45.03;21.30;;;;;;;4.28;100.00;101991.44;5014089;28;20048;-61
2022/12/05 04:07:43;;;;;;;50.92;21.90;;;;;;;4.43;100.00;101984.66;4996007;28;20040;-63
2022/12/05 04:10:12;;;;;;;48.22;23.05;;;;;;;4.29;100.00;101988.00;5030303;28;20029;-66
2022/12/05 04:12:40;;;;;;;49.20;21.37;;;;;;;4.33;100.00;101982.81;5028845;28;20021;-64
2022/12/05 04:15:11;;;;;;;47.88;21.95;;;;;;;4.36;100.00;101985.47;5013350;28;20079;-62
2022/12/05 04:17:46;;;;;;;43.35;22.08;;;;;;;4.15;100.00;101989.56;5030514;28;20463;-62
2022/12/05 04:23:08;;;;;;;47.58;20.25;;;;;;;4.43;100.00;101990.72;5029641;28;20077;-62
2022/12/05 04:25:51;;;;;;;47.55;21.45;;;;;;;4.33;100.00;101982.81;5012050;28;20109;-62
2022/12/05 04:28:23;;;;;;;45.08;20.55;;;;;;;4.49;100.00;101983.84;4997762;28;20041;-62
2022/12/05 04:31:16;;;;;;;39.47;19.85;;;;;;;4.46;100.00;101982.09;4991697;28;20041;-62
2022/12/05 04:33:54;;;;;;;37.30;19.70;;;;;;;4.44;100.00;101986.41;4992149;28;20025;-61
2022/12/05 04:36:21;;;;;;;42.10;20.73;;;;;;;4.41;100.00;101983.75;4992617;28;20081;-63
2022/12/05 04:39:00;;;;;;;42.22;20.80;;;;;;;4.40;100.00;101974.19;4992153;28;20384;-63
2022/12/05 04:41:38;;;;;;;39.58;19.67;;;;;;;4.53;100.00;101973.44;5008932;28;20026;-63
2022/12/05 04:44:07;;;;;;;39.97;19.65;;;;;;;4.58;100.00;101985.66;4991887;28;20044;-59
2022/12/05 04:46:32;;;;;;;39.03;17.92;;;;;;;4.56;100.00;101983.03;4991536;28;20104;-64
2022/12/05 04:48:59;;;;;;;37.75;19.42;;;;;;;4.60;100.00;101981.34;5026285;28;20459;-62
2022/12/05 04:51:29;;;;;;;39.63;18.77;;;;;;;4.67;100.00;101978.78;5011030;28;20417;-62
2022/12/05 04:53:59;;;;;;;;;;;;;;;4.75;100.00;101981.47;5010304;28;20108;-62
2022/12/05 04:56:29;;;;;;;38.35;18.25;;;;;;;4.64;100.00;101983.13;5028239;28;20007;-63
2022/12/05 04:58:54;;;;;;;33.75;18.23;;;;;;;4.70;100.00;101988.41;5027539;28;20127;-63
2022/12/05 05:01:24;;;;;;;35.75;18.63;;;;;;;4.72;100.00;101986.66;5029373;28;20109;-63
2022/12/05 05:03:53;;;;;;;47.58;20.17;;;;;;;4.66;100.00;101984.00;5026718;28;20105;-65
2022/12/05 05:06:18;;;;;;;42.05;19.98;;;;;;;4.75;100.00;101985.81;5010282;28;20030;-62
2022/12/05 05:08:53;;;;;;;39.80;18.45;;;;;;;4.80;100.00;101979.78;5014598;28;20357;-62
2022/12/05 05:11:21;;;;;;;40.60;19.20;;;;;;;4.90;100.00;101982.44;5008567;28;20065;-64
2022/12/05 05:13:47;;;;;;;42.53;19.02;;;;;;;4.80;100.00;101978.91;5011866;28;20111;-63
2022/12/05 05:16:24;;;;;;;37.83;20.17;;;;;;;4.76;100.00;101983.22;5013542;28;20472;-62
2022/12/05 05:18:50;;;;;;;35.28;18.75;;;;;;;4.91;100.00;101979.00;5028197;28;20038;-61
2022/12/05 05:21:20;;;;;;;36.38;19.15;;;;;;;4.78;100.00;101976.28;5028712;28;20329;-61
2022/12/05 05:23:46;;;;;;;38.03;18.67;;;;;;;4.91;100.00;101979.00;5021804;28;20053;-63
2022/12/05 05:26:11;;;;;;;41.03;20.05;;;;;;;4.86;100.00;101981.56;5023732;28;20049;-61
2022/12/05 05:28:37;;;;;;;35.00;18.90;;;;;;;4.77;100.00;101984.09;5031602;28;20032;-62
2022/12/05 05:31:03;;;;;;;37.13;19.10;;;;;;;4.78;100.00;101980.59;5031090;28;20022;-62
2022/12/05 05:33:29;;;;;;;35.03;18.40;;;;;;;4.75;100.00;101985.81;5031049;28;20030;-62
2022/12/05 05:35:54;;;;;;;36.80;19.15;;;;;;;4.80;100.00;101995.47;5012602;28;20028;-63
2022/12/05 05:38:19;;;;;;;35.88;18.48;;;;;;;4.93;100.00;101995.53;5031281;28;20665;-60
2022/12/05 05:40:45;;;;;;;38.90;19.85;;;;;;;4.86;100.00;101991.13;5029901;28;20377;-63
2022/12/05 05:43:10;;;;;;;35.78;19.08;;;;;;;4.84;100.00;101992.88;5008168;28;20568;-63
2022/12/05 05:45:35;;;;;;;34.05;18.55;;;;;;;4.99;100.00;101994.72;5030132;28;20267;-62
2022/12/05 05:48:01;;;;;;;38.70;19.70;;;;;;;4.97;100.00;101994.69;5029984;28;20368;-62
2022/12/05 05:50:26;;;;;;;42.20;20.23;;;;;;;4.91;100.00;102002.50;5012059;28;20482;-61
2022/12/05 05:52:52;;;;;;;40.10;20.20;;;;;;;4.96;100.00;101995.56;5028431;28;20067;-63
2022/12/05 05:55:17;;;;;;;43.08;21.63;;;;;;;5.01;100.00;101998.22;5021095;28;20038;-63
2022/12/05 05:57:43;;;;;;;42.70;21.00;;;;;;;4.93;100.00;102003.38;5009782;28;20026;-62
2022/12/05 06:00:08;;;;;;;40.67;19.90;;;;;;;4.91;100.00;101998.13;5010471;28;20030;-61
2022/12/05 06:02:34;;;;;;;44.22;19.70;;;;;;;4.99;100.00;101998.22;4976090;28;1060905;-60
2022/12/05 06:05:00;;;;;;;40.80;19.88;;;;;;;5.00;100.00;101999.94;5031153;28;20037;-64
2022/12/05 06:07:25;;;;;;;43.15;21.77;;;;;;;5.06;100.00;101999.16;5031622;28;20021;-63
2022/12/05 06:09:51;;;;;;;42.05;20.90;;;;;;;5.02;100.00;101995.63;5030347;28;20025;-62
2022/12/05 06:12:16;;;;;;;42.83;20.63;;;;;;;4.95;100.00;101995.56;5031742;28;20731;-64
2022/12/05 06:14:41;;;;;;;43.22;22.00;;;;;;;4.93;100.00;101999.03;5013776;28;20396;-64
2022/12/05 06:17:07;;;;;;;40.15;21.02;;;;;;;4.99;100.00;102000.81;5031798;28;20026;-64
2022/12/05 06:19:32;;;;;;;43.40;20.52;;;;;;;5.10;100.00;101994.81;5013460;28;20464;-65
2022/12/05 06:21:57;;;;;;;45.38;21.35;;;;;;;5.02;100.00;101998.25;5030383;28;20025;-63
2022/12/05 06:24:23;;;;;;;47.90;22.00;;;;;;;5.13;100.00;101994.84;5029775;28;20448;-63
2022/12/05 06:26:48;;;;;;;43.97;21.45;;;;;;;5.15;100.00;101990.50;5012654;28;20068;-63
2022/12/05 06:29:13;;;;;;;43.65;20.88;;;;;;;5.25;100.00;102005.38;5030545;28;20040;-64
2022/12/05 06:31:40;;;;;;;41.92;20.83;;;;;;;5.28;100.00;102001.91;5031140;28;20056;-61
2022/12/05 06:34:05;;;;;;;44.13;22.25;;;;;;;5.19;100.00;101997.50;5031746;28;20036;-64
2022/12/05 06:36:31;;;;;;;46.40;22.40;;;;;;;5.15;100.00;102006.19;5030760;28;20018;-63
2022/12/05 06:38:57;;;;;;;48.40;21.30;;;;;;;5.10;100.00;102008.75;5030927;28;20108;-63
2022/12/05 06:41:23;;;;;;;53.20;22.15;;;;;;;5.17;100.00;102004.44;5012789;28;20486;-64
2022/12/05 06:43:51;;;;;;;44.35;21.52;;;;;;;5.31;100.00;102010.66;5030982;28;20031;-64
2022/12/05 06:46:17;;;;;;;44.83;20.97;;;;;;;5.26;100.00;102011.47;5031100;28;20112;-63
2022/12/05 06:48:43;;;;;;;47.60;21.63;;;;;;;5.27;100.00;102008.88;5030451;28;20104;-63
2022/12/05 06:51:10;;;;;;;50.42;21.60;;;;;;;5.15;100.00;102007.03;5031581;28;20034;-64
2022/12/05 06:53:35;;;;;;;51.33;21.60;;;;;;;5.22;100.00;102014.94;5011374;28;20029;-65
2022/12/05 06:56:03;;;;;;;45.50;20.55;;;;;;;5.30;100.00;102015.88;5029093;28;20029;-63
2022/12/05 06:58:30;;;;;;;40.58;21.23;;;;;;;5.28;100.00;102017.59;5029332;28;20073;-62
2022/12/05 07:03:39;;;;;;;47.10;20.23;;;;;;;5.20;100.00;102017.53;5030430;28;20530;-61
2022/12/05 07:06:06;;;;;;;44.67;21.35;;;;;;;5.22;100.00;102018.44;5030898;28;20029;-63
2022/12/05 07:08:32;;;;;;;46.45;22.50;;;;;;;5.33;100.00;102022.84;5030116;28;20031;-64
2022/12/05 07:10:57;;;;;;;46.75;20.75;;;;;;;5.36;100.00;102028.09;5029159;28;20029;-62
2022/12/05 07:13:23;;;;;;;42.65;20.25;;;;;;;5.23;100.00;102030.63;5030221;28;20025;-63
2022/12/05 07:15:50;;;;;;;52.35;21.33;;;;;;;5.35;100.00;102028.94;5029999;28;20018;-64
2022/12/05 07:18:16;;;;;;;48.15;21.88;;;;;;;5.44;100.00;102031.63;5030353;28;20076;-63
2022/12/05 07:20:42;;;;;;;42.35;19.85;;;;;;;5.39;100.00;102030.75;5029507;28;20036;-63
2022/12/05 07:23:07;;;;;;;45.33;20.25;;;;;;;5.44;100.00;102032.53;5029503;28;20017;-64
2022/12/05 07:25:32;;;;;;;37.53;18.65;;;;;;;5.36;100.00;102030.72;5028902;28;20029;-63
2022/12/05 07:27:58;;;;;;;35.95;19.80;;;;;;;5.33;100.00;102030.69;5030004;28;20104;-63
2022/12/05 07:30:23;;;;;;;35.88;18.65;;;;;;;5.35;100.00;102034.19;5026400;28;20135;-62
2022/12/05 07:32:48;;;;;;;38.85;19.73;;;;;;;5.36;100.00;102035.94;5016433;28;20141;-65
2022/12/05 07:35:14;;;;;;;37.13;18.38;;;;;;;5.28;100.00;102048.97;5020291;28;20053;-62
2022/12/05 07:37:39;;;;;;;33.72;17.33;;;;;;;5.31;100.00;102044.63;5026280;28;20037;-62
2022/12/05 07:40:05;;;;;;;37.13;18.10;;;;;;;5.36;100.00;102051.63;5021110;28;20448;-64
2022/12/05 07:42:30;;;;;;;31.98;16.25;;;;;;;5.51;100.00;102045.63;5010105;28;20025;-63
2022/12/05 07:44:56;;;;;;;27.75;16.95;;;;;;;5.53;100.00;102042.16;5025234;28;20036;-63
2022/12/05 07:47:21;;;;;;;29.27;16.73;;;;;;;5.40;100.00;102045.56;5022272;28;20086;-63
2022/12/05 07:49:46;;;;;;;29.38;15.73;;;;;;;5.50;100.00;102055.22;5024349;28;20463;-63
2022/12/05 07:52:12;;;;;;;27.65;15.70;;;;;;;5.44;100.00;102045.59;5017477;28;20029;-63
2022/12/05 07:54:44;;;;;;;25.00;15.25;;;;;;;5.44;100.00;102050.81;5064832;28;20761;-64
2022/12/05 07:57:10;;;;;;;25.92;14.88;;;;;;;5.49;100.00;102052.59;5065118;28;20028;-63
2022/12/05 07:59:36;;;;;;;27.42;15.15;;;;;;;5.41;100.00;102050.78;5065685;28;20475;-63
2022/12/05 08:02:01;;;;;;;29.35;15.40;;;;;;;5.59;100.00;102053.50;5065876;28;20103;-64
2022/12/05 08:04:27;;;;;;;28.17;15.48;;;;;;;5.46;100.00;102058.69;5065531;28;20116;-62
2022/12/05 08:06:52;;;;;;;25.17;14.38;;;;;;;5.40;100.00;102054.28;5062842;28;20056;-63
2022/12/05 08:09:18;;;;;;;25.02;15.02;;;;;;;5.59;100.00;102050.91;5064262;28;20032;-61
2022/12/05 08:11:43;;;;;;;22.13;13.80;;;;;;;5.47;100.00;102052.56;5064571;28;20021;-62
2022/12/05 08:14:08;;;;;;;25.67;14.85;;;;;;;5.51;100.00;102056.09;5065847;28;20529;-63
2022/12/05 08:16:34;;;;;;;24.50;12.88;;;;;;;5.47;100.00;102059.53;5064568;28;20029;-64
2022/12/05 08:19:02;;;;;;;24.50;14.48;;;;;;;5.39;100.00;102062.13;5065602;28;20048;-58
2022/12/05 08:21:27;;;;;;;21.33;13.63;;;;;;;5.51;100.00;102059.56;5064789;28;20498;-62
2022/12/05 08:23:53;;;;;;;20.77;13.38;;;;;;;5.60;100.00;102060.50;5065083;28;20025;-63
2022/12/05 08:26:23;;;;;;;18.45;12.30;;;;;;;5.61;100.00;102065.75;5065611;28;20036;-63
2022/12/05 08:29:09;;;;;;;21.25;12.85;;;;;;;5.67;100.00;102065.81;5065893;28;20021;-59
2022/12/05 08:31:37;;;;;;;17.10;11.98;;;;;;;5.77;100.00;102061.50;5064646;28;20020;-62
2022/12/05 08:34:03;;;;;;;17.58;11.93;;;;;;;5.64;100.00;102068.41;5060631;28;20056;-62
2022/12/05 08:36:29;;;;;;;21.35;12.23;;;;;;;5.69;100.00;102068.44;5063210;28;20112;-62
2022/12/05 08:38:59;;;;;;;19.27;12.63;;;;;;;5.75;100.00;102076.28;5052456;28;20023;-61
2022/12/05 08:41:27;;;;;;;20.75;12.40;;;;;;;5.59;100.00;102074.44;5061444;28;20047;-63
2022/12/05 08:43:53;;;;;;;15.95;11.27;;;;;;;5.77;100.00;102077.19;5061567;28;20017;-64
2022/12/05 08:46:19;;;;;;;20.73;12.07;;;;;;;5.84;100.00;102077.22;5064517;28;20021;-63
2022/12/05 08:48:44;;;;;;;16.58;11.27;;;;;;;5.81;100.00;102085.94;5064035;28;20032;-61
2022/12/05 08:51:10;;;;;;;17.10;12.20;;;;;;;5.79;100.00;102083.31;5062028;28;20015;-63
2022/12/05 08:53:36;;;;;;;17.08;11.52;;;;;;;5.81;100.00;102084.19;5059537;28;20077;-62
2022/12/05 08:56:03;;;;;;;17.45;11.70;;;;;;;5.87;100.00;102091.19;5046372;28;20021;-61
2022/12/05 08:58:29;;;;;;;16.60;11.35;;;;;;;5.93;100.00;102092.97;5062344;28;20025;-62
2022/12/05 09:01:05;;;;;;;18.60;12.05;;;;;;;5.94;100.00;102097.34;5051585;28;20048;-62
2022/12/05 09:03:30;;;;;;;17.58;10.85;;;;;;;5.90;100.00;102098.19;5061976;28;20071;-61
2022/12/05 09:06:08;;;;;;;18.92;11.20;;;;;;;6.00;100.00;102086.91;5051016;28;20037;-62
2022/12/05 09:08:33;;;;;;;14.38;10.57;;;;;;;6.09;100.00;102098.31;5051032;28;20029;-62
2022/12/05 09:10:59;;;;;;;16.95;10.45;;;;;;;6.06;100.00;102094.81;5044004;28;20642;-62
2022/12/05 09:13:24;;;;;;;16.50;10.85;;;;;;;6.11;100.00;102094.84;5032540;28;20029;-63
2022/12/05 09:15:49;;;;;;;16.70;10.50;;;;;;;6.07;100.00;102093.06;5039556;28;20041;-65
2022/12/05 09:18:15;;;;;;;16.80;10.90;;;;;;;5.98;100.00;102099.09;5050291;28;20074;-63
2022/12/05 09:20:40;;;;;;;16.70;10.45;;;;;;;5.99;100.00;102100.00;5049949;28;20033;-62
2022/12/05 09:23:06;;;;;;;15.45;10.63;;;;;;;6.02;100.00;102106.09;5051531;28;20025;-62
2022/12/05 09:25:31;;;;;;;15.40;10.20;;;;;;;6.10;100.00;102100.06;5049341;28;20017;-62
2022/12/05 09:27:56;;;;;;;14.85;9.93;;;;;;;6.16;100.00;102102.72;5049344;28;20553;-61
2022/12/05 09:30:22;;;;;;;15.95;9.10;;;;;;;6.08;100.00;102105.28;5049824;28;20422;-63
2022/12/05 09:32:47;;;;;;;12.57;9.52;;;;;;;6.10;100.00;102107.91;5049570;28;20680;-64
2022/12/05 09:35:12;;;;;;;14.50;9.18;;;;;;;6.15;100.00;102109.72;5049017;28;20025;-63
2022/12/05 09:37:38;;;;;;;12.35;9.48;;;;;;;6.13;100.00;102113.16;5050677;28;20562;-62
2022/12/05 09:40:04;;;;;;;14.57;8.98;;;;;;;6.07;100.00;102108.78;5048455;28;20053;-60
2022/12/05 09:42:54;;;;;;;12.43;8.23;;;;;;;6.03;100.00;102113.09;5032232;28;20033;-63
2022/12/05 09:45:28;;;;;;;11.43;8.43;;;;;;;6.13;100.00;102119.28;5045362;28;20033;-60
2022/12/05 09:47:56;;;;;;;10.80;7.85;;;;;;;6.10;100.00;102121.00;5047197;28;20048;-63
2022/12/05 09:50:44;;;;;;;8.90;7.03;;;;;;;6.11;100.00;102125.38;5050094;28;20079;-62
2022/12/05 09:53:10;;;;;;;9.27;7.43;;;;;;;6.09;100.00;102128.00;5049234;28;20434;-63
2022/12/05 09:55:52;;;;;;;14.07;7.60;;;;;;;6.00;100.00;102131.41;5050386;28;20277;-63
2022/12/05 09:58:26;;;;;;;10.45;7.18;;;;;;;6.03;100.00;102127.91;5050247;28;20027;-62
2022/12/05 10:00:58;;;;;;;8.40;6.95;;;;;;;6.15;100.00;102122.78;5048647;28;20039;-63
2022/12/05 10:03:41;;;;;;;9.10;6.72;;;;;;;6.21;100.00;102126.28;5046272;28;20017;-62
2022/12/05 10:06:14;;;;;;;7.57;6.13;;;;;;;6.05;100.00;102121.84;5048421;28;20103;-63
2022/12/05 10:09:02;;;;;;;11.65;7.68;;;;;;;6.16;100.00;102126.25;5044566;28;20044;-62
2022/12/05 10:11:37;;;;;;;10.77;6.53;;;;;;;6.26;100.00;102121.97;5044812;28;20025;-62
2022/12/05 10:14:08;;;;;;;9.65;6.97;;;;;;;6.27;100.00;102126.34;5049816;28;20300;-62
2022/12/05 10:16:38;;;;;;;8.93;6.57;;;;;;;6.34;100.00;102129.84;5048037;28;20491;-61
2022/12/05 10:19:13;;;;;;;8.73;6.85;;;;;;;6.24;100.00;102132.44;5048875;28;20184;-62
2022/12/05 10:21:49;;;;;;;9.90;7.28;;;;;;;6.27;100.00;102127.22;5050075;28;20057;-62
2022/12/05 10:24:20;;;;;;;12.05;7.70;;;;;;;6.25;100.00;102121.09;5048919;28;20028;-62
2022/12/05 10:26:57;;;;;;;10.05;7.05;;;;;;;6.23;100.00;102130.66;5050349;28;20104;-62
2022/12/05 10:29:30;;;;;;;11.90;7.82;;;;;;;6.23;100.00;102122.81;5037824;28;20037;-59
2022/12/05 10:32:21;;;;;;;13.23;8.20;;;;;;;6.24;100.00;102126.31;5030169;28;20171;-63
2022/12/05 10:34:46;;;;;;;15.63;8.63;;;;;;;6.15;100.00;102130.66;5028253;28;20079;-63
2022/12/05 10:37:22;;;;;;;10.10;7.25;;;;;;;6.24;100.00;102131.53;5030078;28;20118;-62
2022/12/05 10:39:49;;;;;;;11.23;7.70;;;;;;;6.46;100.00;102129.91;5029006;28;20044;-64
2022/12/05 10:42:24;;;;;;;10.35;8.35;;;;;;;6.53;100.00;102128.19;5030140;28;20025;-62
2022/12/05 10:44:54;;;;;;;10.98;8.15;;;;;;;6.44;100.00;102129.00;5037591;28;20455;-63
2022/12/05 10:47:20;;;;;;;9.38;7.20;;;;;;;6.35;100.00;102129.84;5064715;28;20031;-61
2022/12/05 10:49:46;;;;;;;9.00;6.90;;;;;;;6.19;100.00;102136.75;5049249;28;20021;-63
2022/12/05 10:52:12;;;;;;;11.25;7.50;;;;;;;6.28;100.00;102126.34;5047173;28;20025;-62
2022/12/05 10:54:43;;;;;;;10.27;7.18;;;;;;;6.41;100.00;102121.16;5047829;28;20049;-63
2022/12/05 10:57:26;;;;;;;9.45;7.13;;;;;;;6.33;100.00;102118.50;5048394;28;20420;-62
2022/12/05 10:59:51;;;;;;;9.75;6.82;;;;;;;6.33;100.00;102115.91;5048496;28;20031;-61
2022/12/05 11:02:21;;;;;;;8.50;6.70;;;;;;;6.32;100.00;102115.00;5048699;28;20021;-62
2022/12/05 11:04:46;;;;;;;8.27;6.72;;;;;;;6.52;100.00;102114.22;5048799;28;20029;-59
2022/12/05 11:07:31;;;;;;;8.48;6.65;;;;;;;6.56;100.00;102115.09;5049226;28;20474;-63
2022/12/05 11:09:58;;;;;;;9.13;6.88;;;;;;;6.52;100.00;102111.59;5048473;28;20029;-62
2022/12/05 11:12:27;;;;;;;9.75;7.30;;;;;;;6.53;100.00;102118.56;5041477;28;20357;-62
2022/12/05 11:14:53;;;;;;;;;;;;;;;6.46;100.00;102114.19;5027672;28;20027;-62
2022/12/05 11:17:26;;;;;;;10.77;6.93;;;;;;;6.42;100.00;102107.19;5044637;28;20016;-63
2022/12/05 11:19:52;;;;;;;11.57;6.93;;;;;;;6.52;100.00;102110.72;5046205;28;20159;-62
2022/12/05 11:22:18;;;;;;;12.50;6.97;;;;;;;6.42;100.00;102109.81;5048463;28;20024;-62
2022/12/05 11:24:43;;;;;;;8.43;6.90;;;;;;;6.42;100.00;102110.66;5048285;28;20073;-65
2022/12/05 11:27:14;;;;;;;15.98;7.22;;;;;;;6.37;100.00;102112.41;5048914;28;20025;-63
2022/12/05 11:29:40;;;;;;;9.68;6.55;;;;;;;6.40;100.00;102112.44;5048327;28;20024;-62